Newark, United Kingdom
Current Conditions -  °F | °C
As of 9:50 AM on Wednesday 28 Jan 2015 (Local Time) from EGYD Reporting Station
Light Rain Light Rain  
Wind Chill: 40°   Ceiling: 2000
Heat Index: 48°   Visibility: 5mi
Dew Point: 46°   Wind: 29mph
Humidity: 93%   Direction: 220°SW
Pressure: 29.41"   Gusts: NA
Location:  53.08°N, 0.81°W
Report Text: EGYD 280850Z 22025KT 8000 -RA SCT010 BKN020 BKN050 09/08 Q0996 GRN TEMPO 28028G45KT 3000 +RA YLO1
Loading
Personal Weather Stations






























Interactive Weather Map New forecast layout! Learn more

10-Day Weather Forecast

Advertisements
Track Severe Weather on mobile